sensor_id;sensor_type;location;lat;lon;timestamp;P1;P2;P0
46885;PMS5003;32622;48.202;11.326;2022-07-25T00:01:01;12;12;
46885;PMS5003;32622;48.202;11.326;2022-07-25T00:03:05;12;12;
46885;PMS5003;32622;48.202;11.326;2022-07-25T00:05:08;14;14;
46885;PMS5003;32622;48.202;11.326;2022-07-25T00:07:11;14;14;
46885;PMS5003;32622;48.202;11.326;2022-07-25T00:09:14;14;14;
46885;PMS5003;32622;48.202;11.326;2022-07-25T00:11:17;14;14;
46885;PMS5003;32622;48.202;11.326;2022-07-25T00:13:20;14;14;
46885;PMS5003;32622;48.202;11.326;2022-07-25T00:15:23;14;14;
46885;PMS5003;32622;48.202;11.326;2022-07-25T00:17:26;13;13;
46885;PMS5003;32622;48.202;11.326;2022-07-25T00:19:29;13;13;
46885;PMS5003;32622;48.202;11.326;2022-07-25T00:21:33;13;13;
46885;PMS5003;32622;48.202;11.326;2022-07-25T00:23:36;13;13;
46885;PMS5003;32622;48.202;11.326;2022-07-25T00:25:40;13;13;
46885;PMS5003;32622;48.202;11.326;2022-07-25T00:27:43;13;13;
46885;PMS5003;32622;48.202;11.326;2022-07-25T00:29:46;13;13;
46885;PMS5003;32622;48.202;11.326;2022-07-25T00:31:49;13;13;
46885;PMS5003;32622;48.202;11.326;2022-07-25T00:33:52;13;13;
46885;PMS5003;32622;48.202;11.326;2022-07-25T00:35:56;13;13;
46885;PMS5003;32622;48.202;11.326;2022-07-25T00:37:59;13;13;
46885;PMS5003;32622;48.202;11.326;2022-07-25T00:40:03;13;13;
46885;PMS5003;32622;48.202;11.326;2022-07-25T00:42:07;14;14;
46885;PMS5003;32622;48.202;11.326;2022-07-25T00:44:20;14;14;
46885;PMS5003;32622;48.202;11.326;2022-07-25T00:46:24;14;14;
46885;PMS5003;32622;48.202;11.326;2022-07-25T00:48:27;13;13;
46885;PMS5003;32622;48.202;11.326;2022-07-25T00:50:31;13;13;
46885;PMS5003;32622;48.202;11.326;2022-07-25T00:52:34;13;13;
46885;PMS5003;32622;48.202;11.326;2022-07-25T00:54:37;13;13;
46885;PMS5003;32622;48.202;11.326;2022-07-25T00:56:41;13;13;
46885;PMS5003;32622;48.202;11.326;2022-07-25T00:58:45;13;13;
46885;PMS5003;32622;48.202;11.326;2022-07-25T01:00:49;13;13;
46885;PMS5003;32622;48.202;11.326;2022-07-25T01:02:52;13;13;
46885;PMS5003;32622;48.202;11.326;2022-07-25T01:04:55;13;13;
46885;PMS5003;32622;48.202;11.326;2022-07-25T01:06:58;11;11;
46885;PMS5003;32622;48.202;11.326;2022-07-25T01:09:02;11;11;
46885;PMS5003;32622;48.202;11.326;2022-07-25T01:11:09;11;11;
46885;PMS5003;32622;48.202;11.326;2022-07-25T01:13:12;12;12;
46885;PMS5003;32622;48.202;11.326;2022-07-25T01:15:17;12;12;
46885;PMS5003;32622;48.202;11.326;2022-07-25T01:17:21;12;12;
46885;PMS5003;32622;48.202;11.326;2022-07-25T01:19:24;11;11;
46885;PMS5003;32622;48.202;11.326;2022-07-25T01:21:27;11;11;
46885;PMS5003;32622;48.202;11.326;2022-07-25T01:23:31;11;11;
46885;PMS5003;32622;48.202;11.326;2022-07-25T01:25:34;11;11;
46885;PMS5003;32622;48.202;11.326;2022-07-25T01:27:38;12;12;
46885;PMS5003;32622;48.202;11.326;2022-07-25T01:29:41;12;12;
46885;PMS5003;32622;48.202;11.326;2022-07-25T01:31:44;12;12;
46885;PMS5003;32622;48.202;11.326;2022-07-25T01:33:47;11;11;
46885;PMS5003;32622;48.202;11.326;2022-07-25T01:35:51;11;11;
46885;PMS5003;32622;48.202;11.326;2022-07-25T01:37:54;12;11;
46885;PMS5003;32622;48.202;11.326;2022-07-25T01:39:57;12;11;
46885;PMS5003;32622;48.202;11.326;2022-07-25T01:42:01;12;11;
46885;PMS5003;32622;48.202;11.326;2022-07-25T01:44:05;12;11;
46885;PMS5003;32622;48.202;11.326;2022-07-25T01:46:08;12;11;
46885;PMS5003;32622;48.202;11.326;2022-07-25T01:48:11;12;11;
46885;PMS5003;32622;48.202;11.326;2022-07-25T01:50:14;12;11;
46885;PMS5003;32622;48.202;11.326;2022-07-25T01:52:18;12;11;
46885;PMS5003;32622;48.202;11.326;2022-07-25T01:54:22;12;11;
46885;PMS5003;32622;48.202;11.326;2022-07-25T01:56:25;13;12;
46885;PMS5003;32622;48.202;11.326;2022-07-25T01:58:28;13;12;
46885;PMS5003;32622;48.202;11.326;2022-07-25T02:00:32;13;12;
46885;PMS5003;32622;48.202;11.326;2022-07-25T02:02:35;12;11;
46885;PMS5003;32622;48.202;11.326;2022-07-25T02:04:38;12;11;
46885;PMS5003;32622;48.202;11.326;2022-07-25T02:06:41;12;11;
46885;PMS5003;32622;48.202;11.326;2022-07-25T02:08:45;12;11;
46885;PMS5003;32622;48.202;11.326;2022-07-25T02:10:48;12;11;
46885;PMS5003;32622;48.202;11.326;2022-07-25T02:12:52;12;11;
46885;PMS5003;32622;48.202;11.326;2022-07-25T02:14:55;11;10;
46885;PMS5003;32622;48.202;11.326;2022-07-25T02:16:59;11;10;
46885;PMS5003;32622;48.202;11.326;2022-07-25T02:19:02;11;10;
46885;PMS5003;32622;48.202;11.326;2022-07-25T02:21:07;12;11;
46885;PMS5003;32622;48.202;11.326;2022-07-25T02:23:10;12;11;
46885;PMS5003;32622;48.202;11.326;2022-07-25T02:25:13;12;11;
46885;PMS5003;32622;48.202;11.326;2022-07-25T02:27:17;11;10;
46885;PMS5003;32622;48.202;11.326;2022-07-25T02:29:20;11;10;
46885;PMS5003;32622;48.202;11.326;2022-07-25T02:31:23;11;10;
46885;PMS5003;32622;48.202;11.326;2022-07-25T02:33:26;11;10;
46885;PMS5003;32622;48.202;11.326;2022-07-25T02:35:30;11;10;
46885;PMS5003;32622;48.202;11.326;2022-07-25T02:37:33;11;10;
46885;PMS5003;32622;48.202;11.326;2022-07-25T02:39:36;10;10;
46885;PMS5003;32622;48.202;11.326;2022-07-25T02:41:39;10;10;
46885;PMS5003;32622;48.202;11.326;2022-07-25T02:43:43;10;10;
46885;PMS5003;32622;48.202;11.326;2022-07-25T02:45:47;11;11;
46885;PMS5003;32622;48.202;11.326;2022-07-25T02:47:50;11;11;
46885;PMS5003;32622;48.202;11.326;2022-07-25T02:49:53;11;11;
46885;PMS5003;32622;48.202;11.326;2022-07-25T02:51:57;11;11;
46885;PMS5003;32622;48.202;11.326;2022-07-25T02:54:00;11;11;
46885;PMS5003;32622;48.202;11.326;2022-07-25T02:56:10;11;11;
46885;PMS5003;32622;48.202;11.326;2022-07-25T02:58:13;11;11;
46885;PMS5003;32622;48.202;11.326;2022-07-25T03:00:17;11;11;
46885;PMS5003;32622;48.202;11.326;2022-07-25T03:02:20;11;11;
46885;PMS5003;32622;48.202;11.326;2022-07-25T03:04:23;12;12;
46885;PMS5003;32622;48.202;11.326;2022-07-25T03:06:26;12;12;
46885;PMS5003;32622;48.202;11.326;2022-07-25T03:08:30;12;12;
46885;PMS5003;32622;48.202;11.326;2022-07-25T03:10:33;12;12;
46885;PMS5003;32622;48.202;11.326;2022-07-25T03:12:36;12;12;
46885;PMS5003;32622;48.202;11.326;2022-07-25T03:14:40;12;12;
46885;PMS5003;32622;48.202;11.326;2022-07-25T03:16:43;13;13;
46885;PMS5003;32622;48.202;11.326;2022-07-25T03:18:47;13;13;
46885;PMS5003;32622;48.202;11.326;2022-07-25T03:20:50;13;13;
46885;PMS5003;32622;48.202;11.326;2022-07-25T03:22:53;12;12;
46885;PMS5003;32622;48.202;11.326;2022-07-25T03:24:56;12;12;
46885;PMS5003;32622;48.202;11.326;2022-07-25T03:27:00;12;12;
46885;PMS5003;32622;48.202;11.326;2022-07-25T03:29:03;12;12;
46885;PMS5003;32622;48.202;11.326;2022-07-25T03:31:09;12;12;
46885;PMS5003;32622;48.202;11.326;2022-07-25T03:33:13;12;12;
46885;PMS5003;32622;48.202;11.326;2022-07-25T03:35:16;12;12;
46885;PMS5003;32622;48.202;11.326;2022-07-25T03:37:19;12;12;
46885;PMS5003;32622;48.202;11.326;2022-07-25T03:39:22;12;12;
46885;PMS5003;32622;48.202;11.326;2022-07-25T03:41:25;11;11;
46885;PMS5003;32622;48.202;11.326;2022-07-25T03:43:29;11;11;
46885;PMS5003;32622;48.202;11.326;2022-07-25T03:45:32;11;11;
46885;PMS5003;32622;48.202;11.326;2022-07-25T03:47:35;11;11;
46885;PMS5003;32622;48.202;11.326;2022-07-25T03:49:39;12;12;
46885;PMS5003;32622;48.202;11.326;2022-07-25T03:51:42;12;12;
46885;PMS5003;32622;48.202;11.326;2022-07-25T03:53:45;11;11;
46885;PMS5003;32622;48.202;11.326;2022-07-25T03:55:49;11;11;
46885;PMS5003;32622;48.202;11.326;2022-07-25T03:57:52;11;11;
46885;PMS5003;32622;48.202;11.326;2022-07-25T03:59:55;11;11;
46885;PMS5003;32622;48.202;11.326;2022-07-25T04:01:59;11;11;
46885;PMS5003;32622;48.202;11.326;2022-07-25T04:04:02;10;10;
46885;PMS5003;32622;48.202;11.326;2022-07-25T04:06:09;11;11;
46885;PMS5003;32622;48.202;11.326;2022-07-25T04:08:12;11;11;
46885;PMS5003;32622;48.202;11.326;2022-07-25T04:10:16;12;12;
46885;PMS5003;32622;48.202;11.326;2022-07-25T04:12:19;12;12;
46885;PMS5003;32622;48.202;11.326;2022-07-25T04:14:22;12;12;
46885;PMS5003;32622;48.202;11.326;2022-07-25T04:16:26;12;12;
46885;PMS5003;32622;48.202;11.326;2022-07-25T04:18:29;12;12;
46885;PMS5003;32622;48.202;11.326;2022-07-25T04:20:32;12;12;
46885;PMS5003;32622;48.202;11.326;2022-07-25T04:22:36;12;12;
46885;PMS5003;32622;48.202;11.326;2022-07-25T04:24:39;12;12;
46885;PMS5003;32622;48.202;11.326;2022-07-25T04:26:42;12;12;
46885;PMS5003;32622;48.202;11.326;2022-07-25T04:28:45;12;12;
46885;PMS5003;32622;48.202;11.326;2022-07-25T04:30:49;12;12;
46885;PMS5003;32622;48.202;11.326;2022-07-25T04:32:53;12;12;
46885;PMS5003;32622;48.202;11.326;2022-07-25T04:34:56;12;12;
46885;PMS5003;32622;48.202;11.326;2022-07-25T04:36:59;12;12;
46885;PMS5003;32622;48.202;11.326;2022-07-25T04:39:03;12;12;
46885;PMS5003;32622;48.202;11.326;2022-07-25T04:41:09;12;12;
46885;PMS5003;32622;48.202;11.326;2022-07-25T04:43:13;12;12;
46885;PMS5003;32622;48.202;11.326;2022-07-25T04:45:16;12;12;
46885;PMS5003;32622;48.202;11.326;2022-07-25T04:47:19;11;11;
46885;PMS5003;32622;48.202;11.326;2022-07-25T04:49:22;11;11;
46885;PMS5003;32622;48.202;11.326;2022-07-25T04:51:25;11;11;
46885;PMS5003;32622;48.202;11.326;2022-07-25T04:53:28;12;12;
46885;PMS5003;32622;48.202;11.326;2022-07-25T04:55:31;13;13;
46885;PMS5003;32622;48.202;11.326;2022-07-25T04:57:35;13;13;
46885;PMS5003;32622;48.202;11.326;2022-07-25T04:59:38;13;13;
46885;PMS5003;32622;48.202;11.326;2022-07-25T05:01:41;13;13;
46885;PMS5003;32622;48.202;11.326;2022-07-25T05:03:44;13;13;
46885;PMS5003;32622;48.202;11.326;2022-07-25T05:05:48;13;13;
46885;PMS5003;32622;48.202;11.326;2022-07-25T05:07:54;12;12;
46885;PMS5003;32622;48.202;11.326;2022-07-25T05:09:58;12;12;
46885;PMS5003;32622;48.202;11.326;2022-07-25T05:12:01;12;12;
46885;PMS5003;32622;48.202;11.326;2022-07-25T05:14:42;13;13;
46885;PMS5003;32622;48.202;11.326;2022-07-25T05:17:08;13;13;
46885;PMS5003;32622;48.202;11.326;2022-07-25T05:19:23;13;13;
46885;PMS5003;32622;48.202;11.326;2022-07-25T05:21:27;13;13;
46885;PMS5003;32622;48.202;11.326;2022-07-25T05:23:30;13;13;
46885;PMS5003;32622;48.202;11.326;2022-07-25T05:25:33;13;13;
46885;PMS5003;32622;48.202;11.326;2022-07-25T05:27:36;13;13;
46885;PMS5003;32622;48.202;11.326;2022-07-25T05:29:40;13;13;
46885;PMS5003;32622;48.202;11.326;2022-07-25T05:31:43;13;13;
46885;PMS5003;32622;48.202;11.326;2022-07-25T05:33:46;13;13;
46885;PMS5003;32622;48.202;11.326;2022-07-25T05:35:49;13;13;
46885;PMS5003;32622;48.202;11.326;2022-07-25T05:37:53;13;13;
46885;PMS5003;32622;48.202;11.326;2022-07-25T05:39:56;13;13;
46885;PMS5003;32622;48.202;11.326;2022-07-25T05:41:59;13;13;
46885;PMS5003;32622;48.202;11.326;2022-07-25T05:44:02;13;13;
46885;PMS5003;32622;48.202;11.326;2022-07-25T05:46:08;13;13;
46885;PMS5003;32622;48.202;11.326;2022-07-25T05:48:11;13;13;
46885;PMS5003;32622;48.202;11.326;2022-07-25T05:50:15;13;13;
46885;PMS5003;32622;48.202;11.326;2022-07-25T05:52:18;15;15;
46885;PMS5003;32622;48.202;11.326;2022-07-25T05:54:21;15;15;
46885;PMS5003;32622;48.202;11.326;2022-07-25T05:56:24;15;15;
46885;PMS5003;32622;48.202;11.326;2022-07-25T05:58:27;14;14;
46885;PMS5003;32622;48.202;11.326;2022-07-25T06:00:30;14;14;
46885;PMS5003;32622;48.202;11.326;2022-07-25T06:02:33;14;14;
46885;PMS5003;32622;48.202;11.326;2022-07-25T06:04:36;13;13;
46885;PMS5003;32622;48.202;11.326;2022-07-25T06:06:39;13;13;
46885;PMS5003;32622;48.202;11.326;2022-07-25T06:08:42;13;13;
46885;PMS5003;32622;48.202;11.326;2022-07-25T06:10:45;14;12;
46885;PMS5003;32622;48.202;11.326;2022-07-25T06:12:49;14;12;
46885;PMS5003;32622;48.202;11.326;2022-07-25T06:14:52;14;12;
46885;PMS5003;32622;48.202;11.326;2022-07-25T06:16:55;13;12;
46885;PMS5003;32622;48.202;11.326;2022-07-25T06:18:58;13;12;
46885;PMS5003;32622;48.202;11.326;2022-07-25T06:21:01;13;12;
46885;PMS5003;32622;48.202;11.326;2022-07-25T06:23:04;12;11;
46885;PMS5003;32622;48.202;11.326;2022-07-25T06:25:08;12;11;
46885;PMS5003;32622;48.202;11.326;2022-07-25T06:27:11;12;11;
46885;PMS5003;32622;48.202;11.326;2022-07-25T06:29:14;11;10;
46885;PMS5003;32622;48.202;11.326;2022-07-25T06:31:17;11;10;
46885;PMS5003;32622;48.202;11.326;2022-07-25T06:33:25;11;10;
46885;PMS5003;32622;48.202;11.326;2022-07-25T06:35:28;11;10;
46885;PMS5003;32622;48.202;11.326;2022-07-25T06:37:31;11;10;
46885;PMS5003;32622;48.202;11.326;2022-07-25T06:39:37;11;10;
46885;PMS5003;32622;48.202;11.326;2022-07-25T06:41:40;11;10;
46885;PMS5003;32622;48.202;11.326;2022-07-25T06:43:43;11;10;
46885;PMS5003;32622;48.202;11.326;2022-07-25T06:45:46;11;10;
46885;PMS5003;32622;48.202;11.326;2022-07-25T06:47:49;11;10;
46885;PMS5003;32622;48.202;11.326;2022-07-25T06:49:53;11;10;
46885;PMS5003;32622;48.202;11.326;2022-07-25T06:51:56;11;10;
46885;PMS5003;32622;48.202;11.326;2022-07-25T06:53:59;10;9;
46885;PMS5003;32622;48.202;11.326;2022-07-25T06:56:19;9;8;
46885;PMS5003;32622;48.202;11.326;2022-07-25T06:58:22;9;8;
46885;PMS5003;32622;48.202;11.326;2022-07-25T07:00:25;9;8;
46885;PMS5003;32622;48.202;11.326;2022-07-25T07:02:28;10;9;
46885;PMS5003;32622;48.202;11.326;2022-07-25T07:04:31;10;9;
46885;PMS5003;32622;48.202;11.326;2022-07-25T07:06:35;11;10;
46885;PMS5003;32622;48.202;11.326;2022-07-25T07:08:38;11;10;
46885;PMS5003;32622;48.202;11.326;2022-07-25T07:10:41;11;10;
46885;PMS5003;32622;48.202;11.326;2022-07-25T07:12:44;11;11;
46885;PMS5003;32622;48.202;11.326;2022-07-25T07:14:47;11;11;
46885;PMS5003;32622;48.202;11.326;2022-07-25T07:16:50;11;11;
46885;PMS5003;32622;48.202;11.326;2022-07-25T07:18:53;11;11;
46885;PMS5003;32622;48.202;11.326;2022-07-25T07:20:57;11;11;
46885;PMS5003;32622;48.202;11.326;2022-07-25T07:23:00;11;11;
46885;PMS5003;32622;48.202;11.326;2022-07-25T07:25:03;11;11;
46885;PMS5003;32622;48.202;11.326;2022-07-25T07:27:07;11;11;
46885;PMS5003;32622;48.202;11.326;2022-07-25T07:29:10;11;11;
46885;PMS5003;32622;48.202;11.326;2022-07-25T07:31:14;12;12;
46885;PMS5003;32622;48.202;11.326;2022-07-25T07:33:18;12;12;
46885;PMS5003;32622;48.202;11.326;2022-07-25T07:35:21;12;12;
46885;PMS5003;32622;48.202;11.326;2022-07-25T07:37:24;12;12;
46885;PMS5003;32622;48.202;11.326;2022-07-25T07:39:27;12;12;
46885;PMS5003;32622;48.202;11.326;2022-07-25T07:41:30;12;12;
46885;PMS5003;32622;48.202;11.326;2022-07-25T07:43:33;12;12;
46885;PMS5003;32622;48.202;11.326;2022-07-25T07:45:36;11;11;
46885;PMS5003;32622;48.202;11.326;2022-07-25T07:47:39;11;11;
46885;PMS5003;32622;48.202;11.326;2022-07-25T07:49:43;10;10;
46885;PMS5003;32622;48.202;11.326;2022-07-25T07:51:46;11;11;
46885;PMS5003;32622;48.202;11.326;2022-07-25T07:53:49;11;11;
46885;PMS5003;32622;48.202;11.326;2022-07-25T07:55:52;12;12;
46885;PMS5003;32622;48.202;11.326;2022-07-25T07:57:55;12;12;
46885;PMS5003;32622;48.202;11.326;2022-07-25T07:59:59;12;12;
46885;PMS5003;32622;48.202;11.326;2022-07-25T08:02:02;13;12;
46885;PMS5003;32622;48.202;11.326;2022-07-25T08:04:05;13;12;
46885;PMS5003;32622;48.202;11.326;2022-07-25T08:06:11;13;12;
46885;PMS5003;32622;48.202;11.326;2022-07-25T08:08:14;13;11;
46885;PMS5003;32622;48.202;11.326;2022-07-25T08:10:19;13;11;
46885;PMS5003;32622;48.202;11.326;2022-07-25T08:12:23;13;11;
46885;PMS5003;32622;48.202;11.326;2022-07-25T08:14:26;12;11;
46885;PMS5003;32622;48.202;11.326;2022-07-25T08:16:29;12;11;
46885;PMS5003;32622;48.202;11.326;2022-07-25T08:18:32;12;11;
46885;PMS5003;32622;48.202;11.326;2022-07-25T08:20:35;13;12;
46885;PMS5003;32622;48.202;11.326;2022-07-25T08:22:39;13;12;
46885;PMS5003;32622;48.202;11.326;2022-07-25T08:24:44;13;12;
46885;PMS5003;32622;48.202;11.326;2022-07-25T08:26:47;14;13;
46885;PMS5003;32622;48.202;11.326;2022-07-25T08:28:50;14;13;
46885;PMS5003;32622;48.202;11.326;2022-07-25T08:30:53;14;13;
46885;PMS5003;32622;48.202;11.326;2022-07-25T08:32:58;16;14;
46885;PMS5003;32622;48.202;11.326;2022-07-25T08:35:02;16;14;
46885;PMS5003;32622;48.202;11.326;2022-07-25T08:37:06;16;14;
46885;PMS5003;32622;48.202;11.326;2022-07-25T08:39:09;17;15;
46885;PMS5003;32622;48.202;11.326;2022-07-25T08:41:12;16;14;
46885;PMS5003;32622;48.202;11.326;2022-07-25T08:43:15;16;14;
46885;PMS5003;32622;48.202;11.326;2022-07-25T08:45:20;16;14;
46885;PMS5003;32622;48.202;11.326;2022-07-25T08:47:24;16;14;
46885;PMS5003;32622;48.202;11.326;2022-07-25T08:49:28;17;15;
46885;PMS5003;32622;48.202;11.326;2022-07-25T08:51:31;18;16;
46885;PMS5003;32622;48.202;11.326;2022-07-25T08:53:35;18;16;
46885;PMS5003;32622;48.202;11.326;2022-07-25T08:55:38;17;15;
46885;PMS5003;32622;48.202;11.326;2022-07-25T08:57:42;16;14;
46885;PMS5003;32622;48.202;11.326;2022-07-25T08:59:45;16;14;
46885;PMS5003;32622;48.202;11.326;2022-07-25T09:01:49;16;14;
46885;PMS5003;32622;48.202;11.326;2022-07-25T09:03:52;15;14;
46885;PMS5003;32622;48.202;11.326;2022-07-25T09:05:56;15;14;
46885;PMS5003;32622;48.202;11.326;2022-07-25T09:08:05;15;14;
46885;PMS5003;32622;48.202;11.326;2022-07-25T09:10:11;17;16;
46885;PMS5003;32622;48.202;11.326;2022-07-25T09:12:16;17;16;
46885;PMS5003;32622;48.202;11.326;2022-07-25T09:14:26;17;16;
46885;PMS5003;32622;48.202;11.326;2022-07-25T09:16:30;17;16;
46885;PMS5003;32622;48.202;11.326;2022-07-25T09:18:34;17;16;
46885;PMS5003;32622;48.202;11.326;2022-07-25T09:20:38;17;16;
46885;PMS5003;32622;48.202;11.326;2022-07-25T09:22:43;16;15;
46885;PMS5003;32622;48.202;11.326;2022-07-25T09:24:46;15;14;
46885;PMS5003;32622;48.202;11.326;2022-07-25T09:26:50;15;14;
46885;PMS5003;32622;48.202;11.326;2022-07-25T09:28:55;15;14;
46885;PMS5003;32622;48.202;11.326;2022-07-25T09:30:59;15;14;
46885;PMS5003;32622;48.202;11.326;2022-07-25T09:33:02;16;15;
46885;PMS5003;32622;48.202;11.326;2022-07-25T09:35:06;14;14;
46885;PMS5003;32622;48.202;11.326;2022-07-25T09:37:10;14;14;
46885;PMS5003;32622;48.202;11.326;2022-07-25T09:39:15;14;14;
46885;PMS5003;32622;48.202;11.326;2022-07-25T09:41:18;13;13;
46885;PMS5003;32622;48.202;11.326;2022-07-25T09:43:21;13;13;
46885;PMS5003;32622;48.202;11.326;2022-07-25T09:45:25;13;13;
46885;PMS5003;32622;48.202;11.326;2022-07-25T09:47:29;13;13;
46885;PMS5003;32622;48.202;11.326;2022-07-25T09:49:37;13;13;
46885;PMS5003;32622;48.202;11.326;2022-07-25T09:51:41;13;13;
46885;PMS5003;32622;48.202;11.326;2022-07-25T09:53:45;14;14;
46885;PMS5003;32622;48.202;11.326;2022-07-25T09:55:48;14;14;
46885;PMS5003;32622;48.202;11.326;2022-07-25T09:57:51;14;14;
46885;PMS5003;32622;48.202;11.326;2022-07-25T09:59:54;13;13;
46885;PMS5003;32622;48.202;11.326;2022-07-25T10:02:07;13;13;
46885;PMS5003;32622;48.202;11.326;2022-07-25T10:04:13;13;13;
46885;PMS5003;32622;48.202;11.326;2022-07-25T10:06:23;13;13;
46885;PMS5003;32622;48.202;11.326;2022-07-25T10:08:35;13;13;
46885;PMS5003;32622;48.202;11.326;2022-07-25T10:10:40;13;13;
46885;PMS5003;32622;48.202;11.326;2022-07-25T10:12:44;12;12;
46885;PMS5003;32622;48.202;11.326;2022-07-25T10:15:05;12;12;
46885;PMS5003;32622;48.202;11.326;2022-07-25T10:17:18;12;12;
46885;PMS5003;32622;48.202;11.326;2022-07-25T10:19:34;11;11;
46885;PMS5003;32622;48.202;11.326;2022-07-25T10:21:53;11;11;
46885;PMS5003;32622;48.202;11.326;2022-07-25T10:23:57;11;11;
46885;PMS5003;32622;48.202;11.326;2022-07-25T10:26:06;11;11;
46885;PMS5003;32622;48.202;11.326;2022-07-25T10:28:17;11;11;
46885;PMS5003;32622;48.202;11.326;2022-07-25T10:30:21;11;11;
46885;PMS5003;32622;48.202;11.326;2022-07-25T10:32:31;12;12;
46885;PMS5003;32622;48.202;11.326;2022-07-25T10:34:34;12;12;
46885;PMS5003;32622;48.202;11.326;2022-07-25T10:36:40;12;12;
46885;PMS5003;32622;48.202;11.326;2022-07-25T10:38:45;12;12;
46885;PMS5003;32622;48.202;11.326;2022-07-25T10:40:49;12;12;
46885;PMS5003;32622;48.202;11.326;2022-07-25T10:42:55;12;12;
46885;PMS5003;32622;48.202;11.326;2022-07-25T10:45:02;13;13;
46885;PMS5003;32622;48.202;11.326;2022-07-25T10:47:08;13;13;
46885;PMS5003;32622;48.202;11.326;2022-07-25T10:49:16;13;13;
46885;PMS5003;32622;48.202;11.326;2022-07-25T10:51:25;12;12;
46885;PMS5003;32622;48.202;11.326;2022-07-25T10:53:30;12;12;
46885;PMS5003;32622;48.202;11.326;2022-07-25T10:55:36;12;12;
46885;PMS5003;32622;48.202;11.326;2022-07-25T10:57:39;12;12;
46885;PMS5003;32622;48.202;11.326;2022-07-25T10:59:43;12;12;
46885;PMS5003;32622;48.202;11.326;2022-07-25T11:01:46;12;12;
46885;PMS5003;32622;48.202;11.326;2022-07-25T11:03:53;13;13;
46885;PMS5003;32622;48.202;11.326;2022-07-25T11:05:57;13;13;
46885;PMS5003;32622;48.202;11.326;2022-07-25T11:08:00;13;13;
46885;PMS5003;32622;48.202;11.326;2022-07-25T11:10:04;13;13;
46885;PMS5003;32622;48.202;11.326;2022-07-25T11:12:08;13;13;
46885;PMS5003;32622;48.202;11.326;2022-07-25T11:14:17;13;13;
46885;PMS5003;32622;48.202;11.326;2022-07-25T11:16:25;13;13;
46885;PMS5003;32622;48.202;11.326;2022-07-25T11:18:30;13;13;
46885;PMS5003;32622;48.202;11.326;2022-07-25T11:20:35;13;13;
46885;PMS5003;32622;48.202;11.326;2022-07-25T11:22:39;13;13;
46885;PMS5003;32622;48.202;11.326;2022-07-25T11:24:43;13;13;
46885;PMS5003;32622;48.202;11.326;2022-07-25T11:26:48;13;13;
46885;PMS5003;32622;48.202;11.326;2022-07-25T11:28:53;13;13;
46885;PMS5003;32622;48.202;11.326;2022-07-25T11:31:01;13;13;
46885;PMS5003;32622;48.202;11.326;2022-07-25T11:33:05;13;13;
46885;PMS5003;32622;48.202;11.326;2022-07-25T11:35:08;12;12;
46885;PMS5003;32622;48.202;11.326;2022-07-25T11:37:12;12;12;
46885;PMS5003;32622;48.202;11.326;2022-07-25T11:39:16;12;12;
46885;PMS5003;32622;48.202;11.326;2022-07-25T11:41:27;13;13;
46885;PMS5003;32622;48.202;11.326;2022-07-25T11:43:30;13;13;
46885;PMS5003;32622;48.202;11.326;2022-07-25T11:45:33;13;13;
46885;PMS5003;32622;48.202;11.326;2022-07-25T11:47:37;12;12;
46885;PMS5003;32622;48.202;11.326;2022-07-25T11:49:43;12;12;
46885;PMS5003;32622;48.202;11.326;2022-07-25T11:51:47;12;12;
46885;PMS5003;32622;48.202;11.326;2022-07-25T11:53:50;12;12;
46885;PMS5003;32622;48.202;11.326;2022-07-25T11:55:53;12;12;
46885;PMS5003;32622;48.202;11.326;2022-07-25T11:57:57;12;12;
46885;PMS5003;32622;48.202;11.326;2022-07-25T12:00:03;12;12;
46885;PMS5003;32622;48.202;11.326;2022-07-25T12:02:19;12;12;
46885;PMS5003;32622;48.202;11.326;2022-07-25T12:04:23;12;12;
46885;PMS5003;32622;48.202;11.326;2022-07-25T12:06:27;11;11;
46885;PMS5003;32622;48.202;11.326;2022-07-25T12:08:35;11;11;
46885;PMS5003;32622;48.202;11.326;2022-07-25T12:10:41;11;11;
46885;PMS5003;32622;48.202;11.326;2022-07-25T12:12:46;10;10;
46885;PMS5003;32622;48.202;11.326;2022-07-25T12:14:51;10;10;
46885;PMS5003;32622;48.202;11.326;2022-07-25T12:16:54;10;10;
46885;PMS5003;32622;48.202;11.326;2022-07-25T12:18:57;11;11;
46885;PMS5003;32622;48.202;11.326;2022-07-25T12:21:01;11;11;
46885;PMS5003;32622;48.202;11.326;2022-07-25T12:23:05;11;11;
46885;PMS5003;32622;48.202;11.326;2022-07-25T12:25:10;12;12;
46885;PMS5003;32622;48.202;11.326;2022-07-25T12:27:14;12;12;
46885;PMS5003;32622;48.202;11.326;2022-07-25T12:29:17;12;12;
46885;PMS5003;32622;48.202;11.326;2022-07-25T12:31:40;12;12;
46885;PMS5003;32622;48.202;11.326;2022-07-25T12:33:54;11;11;
46885;PMS5003;32622;48.202;11.326;2022-07-25T12:35:59;11;11;
46885;PMS5003;32622;48.202;11.326;2022-07-25T12:38:02;11;11;
46885;PMS5003;32622;48.202;11.326;2022-07-25T12:40:06;11;11;
46885;PMS5003;32622;48.202;11.326;2022-07-25T12:42:10;11;11;
46885;PMS5003;32622;48.202;11.326;2022-07-25T12:44:13;11;11;
46885;PMS5003;32622;48.202;11.326;2022-07-25T12:46:16;11;11;
46885;PMS5003;32622;48.202;11.326;2022-07-25T12:48:20;12;12;
46885;PMS5003;32622;48.202;11.326;2022-07-25T12:50:23;12;12;
46885;PMS5003;32622;48.202;11.326;2022-07-25T12:52:26;13;13;
46885;PMS5003;32622;48.202;11.326;2022-07-25T12:54:30;14;14;
46885;PMS5003;32622;48.202;11.326;2022-07-25T12:56:33;14;14;
46885;PMS5003;32622;48.202;11.326;2022-07-25T12:58:36;14;14;
46885;PMS5003;32622;48.202;11.326;2022-07-25T13:00:40;14;14;
46885;PMS5003;32622;48.202;11.326;2022-07-25T13:02:43;15;15;
46885;PMS5003;32622;48.202;11.326;2022-07-25T13:04:46;13;13;
46885;PMS5003;32622;48.202;11.326;2022-07-25T13:06:50;14;14;
46885;PMS5003;32622;48.202;11.326;2022-07-25T13:08:53;14;14;
46885;PMS5003;32622;48.202;11.326;2022-07-25T13:10:56;14;14;
46885;PMS5003;32622;48.202;11.326;2022-07-25T13:12:59;14;14;
46885;PMS5003;32622;48.202;11.326;2022-07-25T13:15:03;14;14;
46885;PMS5003;32622;48.202;11.326;2022-07-25T13:17:06;14;14;
46885;PMS5003;32622;48.202;11.326;2022-07-25T13:19:10;14;14;
46885;PMS5003;32622;48.202;11.326;2022-07-25T13:21:13;14;14;
46885;PMS5003;32622;48.202;11.326;2022-07-25T13:23:16;14;14;
46885;PMS5003;32622;48.202;11.326;2022-07-25T13:25:20;14;14;
46885;PMS5003;32622;48.202;11.326;2022-07-25T13:27:23;14;14;
46885;PMS5003;32622;48.202;11.326;2022-07-25T13:29:26;14;14;
46885;PMS5003;32622;48.202;11.326;2022-07-25T13:31:29;14;14;